North Bend, OR

3:14 PM PDT on March 25, 2017 (GMT -0700)
North Bend Municipal

Weather History for KOTH - September, 2013

Change the Weather History Date:

Wednesday, September 18, 2013

  Actual Average Record
Temperature  
Mean Temperature 60 °F 57 °F  
Max Temperature 66 °F 65 °F 87 °F (1971)
Min Temperature 54 °F 50 °F 38 °F (1965)
Degree Days  
Heating Degree Days 5 8  
Month to date heating degree days 40 124  
Since 1 July heating degree days 207 503  
Cooling Degree Days 0 0  
Month to date cooling degree days 1 0  
Year to date cooling degree days 13 1  
Growing Degree Days 10 (Base 50)    
Moisture  
Dew Point 56 °F    
Average Humidity 88    
Maximum Humidity 100    
Minimum Humidity 68    
Precipitation  
Precipitation 0.00 in 0.05 in 2.43 in (2004)
Month to date precipitation 0.56 0.76  
Year to date precipitation 18.49 38.00  
Sea Level Pressure  
Sea Level Pressure 30.06 in    
Wind  
Wind Speed 8 mph (ENE)    
Max Wind Speed 18 mph    
Max Gust Speed 22 mph    
Visibility 10 miles    
Events      
T = Trace of Precipitation, MM = Missing Value Source: NWS Daily Summary

Daily Weather History Graph

Daily Weather History Graph

Search for Another Location

Airport or City:

Trip Planner

Search our weather history database for the weather conditions in past years. The results will help you decide how hot, cold, wet, or windy it might be!

Date:

Astronomy

Sep. 18, 2013 Rise Set
Actual Time 7:00 AM PDT 7:21 PM PDT
Civil Twilight 6:31 AM PDT 7:49 PM PDT
Nautical Twilight 5:57 AM PDT 8:23 PM PDT
Astronomical Twilight 5:23 AM PDT 8:57 PM PDT
Moon 6:46 PM PDT (9/18) 6:08 AM PDT (9/18)
Length of Visible Light 13h 18m
Length of Day
12h 20m
Waxing Gibbous, 99% of the Moon is Illuminated
Sep 18
Waxing Gibbous
Sep 19
Full
Sep 26
Last Quarter
Oct 4
New
Oct 11
First Quarter

Hourly Weather History & Observations

Time (PDT) Temp. Dew Point Humidity Pressure Visibility Wind Dir Wind Speed Gust Speed Precip Events Conditions
12:15 AM 57.2 °F 57.2 °F 100% 30.08 in 10.0 mi SSE 4.6 mph - N/A   Mostly Cloudy
12:35 AM 55.4 °F 55.4 °F 100% 30.08 in 10.0 mi SE 4.6 mph - N/A   Mostly Cloudy
12:55 AM 57.2 °F 55.4 °F 94% 30.08 in 10.0 mi SE 5.8 mph - N/A   Mostly Cloudy
1:15 AM 55.4 °F 55.4 °F 100% 30.09 in 10.0 mi SE 5.8 mph - N/A   Mostly Cloudy
1:35 AM 55.4 °F 55.4 °F 100% 30.09 in 10.0 mi SSE 5.8 mph - N/A   Scattered Clouds
1:55 AM 55.4 °F 55.4 °F 100% 30.09 in 10.0 mi SSE 4.6 mph - N/A   Partly Cloudy
2:15 AM 55.4 °F 55.4 °F 100% 30.10 in 10.0 mi SSE 5.8 mph - N/A   Mostly Cloudy
2:35 AM 55.4 °F 55.4 °F 100% 30.10 in 10.0 mi SSE 5.8 mph - N/A   Overcast
2:55 AM 55.4 °F 55.4 °F 100% 30.10 in 10.0 mi SSE 5.8 mph - N/A   Mostly Cloudy
3:15 AM 55.4 °F 53.6 °F 94% 30.10 in 10.0 mi South 5.8 mph - N/A   Partly Cloudy
3:35 AM 55.4 °F 55.4 °F 100% 30.09 in 10.0 mi South 5.8 mph - N/A   Clear
3:55 AM 55.4 °F 55.4 °F 100% 30.10 in 10.0 mi South 5.8 mph - N/A   Mostly Cloudy
4:15 AM 55.4 °F 55.4 °F 100% 30.10 in 10.0 mi SSE 5.8 mph - N/A   Overcast
4:35 AM 55.4 °F 53.6 °F 94% 30.11 in 10.0 mi SSE 4.6 mph - N/A   Overcast
4:55 AM 55.4 °F 55.4 °F 100% 30.10 in 10.0 mi SSE 5.8 mph - N/A   Overcast
5:15 AM 55.4 °F 53.6 °F 94% 30.11 in 10.0 mi SSE 6.9 mph - N/A   Overcast
5:35 AM 53.6 °F 53.6 °F 100% 30.10 in 10.0 mi SSE 6.9 mph - N/A   Scattered Clouds
5:55 AM 53.6 °F 53.6 °F 100% 30.10 in 10.0 mi SSE 6.9 mph - N/A   Clear
6:15 AM 53.6 °F 53.6 °F 100% 30.10 in 10.0 mi SSE 6.9 mph - N/A   Clear
6:35 AM 53.6 °F 53.6 °F 100% 30.10 in 10.0 mi SSE 6.9 mph - N/A   Clear
6:55 AM 53.6 °F 51.8 °F 94% 30.10 in 10.0 mi SE 4.6 mph - N/A   Partly Cloudy
7:15 AM 53.6 °F 51.8 °F 94% 30.10 in 10.0 mi SSE 3.5 mph - N/A   Clear
7:35 AM 53.6 °F 53.6 °F 100% 30.11 in 10.0 mi SE 4.6 mph - N/A   Clear
7:55 AM 53.6 °F 53.6 °F 100% 30.11 in 10.0 mi SE 6.9 mph - N/A   Clear
8:15 AM 55.4 °F 55.4 °F 100% 30.10 in 10.0 mi SE 8.1 mph - N/A   Clear
8:35 AM 53.6 °F 53.6 °F 100% 30.10 in 10.0 mi SE 9.2 mph - N/A   Mostly Cloudy
8:55 AM 55.4 °F 55.4 °F 100% 30.10 in 10.0 mi SE 5.8 mph - N/A   Scattered Clouds
9:15 AM 57.2 °F 55.4 °F 94% 30.10 in 10.0 mi SE 4.6 mph - N/A   Clear
9:35 AM 59.0 °F 57.2 °F 94% 30.10 in 10.0 mi SE 4.6 mph - N/A   Clear
9:55 AM 60.8 °F 57.2 °F 88% 30.11 in 10.0 mi Calm Calm - N/A   Clear
10:15 AM 60.8 °F 57.2 °F 88% 30.11 in 10.0 mi Calm Calm - N/A   Clear
10:35 AM 62.6 °F 55.4 °F 77% 30.11 in 10.0 mi Calm Calm - N/A   Clear
10:55 AM 64.4 °F 55.4 °F 73% 30.11 in 10.0 mi Calm Calm - N/A   Clear
11:15 AM 64.4 °F 57.2 °F 77% 30.11 in 10.0 mi NW 4.6 mph - N/A   Clear
11:35 AM 64.4 °F 57.2 °F 77% 30.10 in 10.0 mi NNW 5.8 mph - N/A   Clear
11:55 AM 66.2 °F 55.4 °F 68% 30.08 in 10.0 mi NW 8.1 mph - N/A   Clear
12:15 PM 66.2 °F 55.4 °F 68% 30.08 in 10.0 mi NW 9.2 mph - N/A   Clear
12:35 PM 66.2 °F 57.2 °F 73% 30.07 in 10.0 mi NNW 10.4 mph - N/A   Clear
12:55 PM 66.2 °F 55.4 °F 68% 30.07 in 10.0 mi NNW 12.7 mph - N/A   Clear
1:15 PM 66.2 °F 57.2 °F 73% 30.06 in 10.0 mi NNW 15.0 mph - N/A   Clear
1:35 PM 66.2 °F 55.4 °F 68% 30.05 in 10.0 mi NNW 13.8 mph - N/A   Clear
1:55 PM 66.2 °F 55.4 °F 68% 30.04 in 10.0 mi North 15.0 mph - N/A   Clear
2:15 PM 66.2 °F 55.4 °F 68% 30.04 in 10.0 mi North 15.0 mph - N/A   Clear
2:35 PM 66.2 °F 57.2 °F 73% 30.04 in 10.0 mi NNW 16.1 mph 20.7 mph N/A   Clear
2:55 PM 66.2 °F 57.2 °F 73% 30.04 in 10.0 mi NNW 13.8 mph 19.6 mph N/A   Clear
3:15 PM 66.2 °F 57.2 °F 73% 30.03 in 10.0 mi North 17.3 mph 21.9 mph N/A   Clear
3:35 PM 66.2 °F 55.4 °F 68% 30.03 in 10.0 mi North 17.3 mph 23.0 mph N/A   Clear
3:55 PM 66.2 °F 55.4 °F 68% 30.02 in 10.0 mi North 17.3 mph - N/A   Clear
4:15 PM 66.2 °F 55.4 °F 68% 30.02 in 10.0 mi North 19.6 mph 23.0 mph N/A   Clear
4:35 PM 64.4 °F 57.2 °F 77% 30.01 in 10.0 mi North 17.3 mph 24.2 mph N/A   Clear
4:55 PM 64.4 °F 57.2 °F 77% 30.01 in 10.0 mi North 18.4 mph 21.9 mph N/A   Clear
5:15 PM 64.4 °F 57.2 °F 77% 30.01 in 10.0 mi North 19.6 mph - N/A   Clear
5:35 PM 64.4 °F 57.2 °F 77% 30.01 in 10.0 mi North 17.3 mph 21.9 mph N/A   Clear
5:55 PM 64.4 °F 55.4 °F 73% 30.01 in 10.0 mi North 18.4 mph - N/A   Clear
6:15 PM 64.4 °F 57.2 °F 77% 30.01 in 10.0 mi North 15.0 mph - N/A   Clear
6:35 PM 64.4 °F 57.2 °F 77% 30.00 in 10.0 mi North 15.0 mph - N/A   Clear
6:55 PM 64.4 °F 57.2 °F 77% 30.00 in 10.0 mi North 11.5 mph - N/A   Clear
7:15 PM 62.6 °F 57.2 °F 82% 30.00 in 10.0 mi North 11.5 mph - N/A   Clear
7:35 PM 60.8 °F 57.2 °F 88% 30.00 in 10.0 mi North 11.5 mph - N/A   Clear
7:55 PM 60.8 °F 57.2 °F 88% 30.01 in 10.0 mi North 9.2 mph - N/A   Clear
8:15 PM 60.8 °F 57.2 °F 88% 30.01 in 10.0 mi North 6.9 mph - N/A   Clear
8:35 PM 60.8 °F 57.2 °F 88% 30.02 in 10.0 mi NNW 6.9 mph - N/A   Clear
8:55 PM 59.0 °F 55.4 °F 88% 30.02 in 10.0 mi North 3.5 mph - N/A   Clear
9:15 PM 57.2 °F 55.4 °F 94% 30.02 in 8.0 mi North 3.5 mph - N/A   Clear
9:35 PM 57.2 °F 55.4 °F 94% 30.02 in 9.0 mi North 3.5 mph - N/A   Clear
9:55 PM 57.2 °F 55.4 °F 94% 30.01 in 10.0 mi North 3.5 mph - N/A   Clear
10:15 PM 55.4 °F 55.4 °F 100% 30.01 in 10.0 mi Calm Calm - N/A   Clear
10:35 PM 55.4 °F 53.6 °F 94% 30.00 in 10.0 mi SSE 4.6 mph - N/A   Clear
10:55 PM 53.6 °F 53.6 °F 100% 30.00 in 10.0 mi SE 5.8 mph - N/A   Clear
11:15 PM 55.4 °F 53.6 °F 94% 29.99 in 10.0 mi Calm Calm - N/A   Clear
11:35 PM 53.6 °F 53.6 °F 100% 29.99 in 10.0 mi Calm Calm - N/A   Clear
11:55 PM 55.4 °F 55.4 °F 100% 29.98 in 10.0 mi SE 6.9 mph - N/A   Clear